If you wish to contribute or participate in the discussions about articles you are invited to join SKYbrary as a registered user

 Actions

Albert-Bray Airport

From SKYbrary Wiki

LFAQ
Airport
ICAO: LFAQ
Summary
Name Albert-Bray Airport
Region Europe
Territory France FR.gif
Location , Picardie
Serving Albert
Elevation 110.947 m
364 ft
364 ft110.947 m
Type small airport
Coordinates 49° 58' 17.51" N, 2° 41' 51.58" E
Runways
Designator Length Width Surface ROPS
9/27 1170 m3,838.583 ft
25 m82.021 ft
ASP /


METAR
Observation LFAQ 270900Z AUTO 19015KT 9999 SCT008 SCT110 08/07 Q1005 BECMG 20015G25KT BKN012 BKN030
Station BRAY
Date/Time 27 October 2020 09:00:00
Wind direction 190°
Wind speed 15 kts
Lowest cloud amount scattered clouds
Temperature 8°C
Dew point 7°C
Humidity 93%
QNH 1005 hPa
Weather condition n/a